Terminal Aerodrome Forecast
Issued by NWS

Home | Current Version | Previous Version | Text Only | Print | Product List | Glossary On
Versions: 1 2 3 4 5 6 7 8 9 10 11 12 13 14 15 16 17 18 19 20 21
659
FTUS43 KMQT 122329
TAFCMX
TAF
KCMX 122329Z 1300/1324 30006KT 3SM -SHSN OVC025
     FM130600 17005KT P6SM BKN050
     FM130900 16005KT P6SM VCSH OVC050
     FM131100 14006KT 5SM -SHSN OVC035
     FM131500 13008KT 2SM -SHSN OVC015
     FM132100 06009KT P6SM BKN025
     FM132300 03010KT P6SM BKN025=

USA.gov is the U.S. government's official web portal to all federal, state and local government web resources and services.